sensor_id;sensor_type;location;lat;lon;timestamp;pressure;altitude;pressure_sealevel;temperature;humidity
7990;BME280;4040;42.848;23.034;2023-05-21T00:03:35;94844.31;;;11.58;100.00
7990;BME280;4040;42.848;23.034;2023-05-21T00:13:51;94831.41;;;11.42;100.00
7990;BME280;4040;42.848;23.034;2023-05-21T00:19:39;94825.25;;;11.38;100.00
7990;BME280;4040;42.848;23.034;2023-05-21T00:25:28;94823.13;;;11.26;100.00
7990;BME280;4040;42.848;23.034;2023-05-21T00:31:18;94794.97;;;10.97;100.00
7990;BME280;4040;42.848;23.034;2023-05-21T00:37:07;94818.06;;;10.98;100.00
7990;BME280;4040;42.848;23.034;2023-05-21T00:42:56;94816.16;;;10.99;100.00
7990;BME280;4040;42.848;23.034;2023-05-21T00:48:48;94818.06;;;10.98;100.00
7990;BME280;4040;42.848;23.034;2023-05-21T00:54:38;94809.59;;;11.00;100.00
7990;BME280;4040;42.848;23.034;2023-05-21T01:00:27;94804.16;;;11.03;100.00
7990;BME280;4040;42.848;23.034;2023-05-21T01:06:17;94807.28;;;10.98;100.00
7990;BME280;4040;42.848;23.034;2023-05-21T01:16:28;94798.13;;;10.92;100.00
7990;BME280;4040;42.848;23.034;2023-05-21T01:22:20;94798.56;;;10.87;100.00
7990;BME280;4040;42.848;23.034;2023-05-21T01:28:12;94800.53;;;10.83;100.00
7990;BME280;4040;42.848;23.034;2023-05-21T01:34:04;94791.75;;;10.79;100.00
7990;BME280;4040;42.848;23.034;2023-05-21T01:39:59;94795.69;;;10.71;100.00
7990;BME280;4040;42.848;23.034;2023-05-21T01:45:54;94794.50;;;10.72;100.00
7990;BME280;4040;42.848;23.034;2023-05-21T01:51:43;94785.88;;;10.88;100.00
7990;BME280;4040;42.848;23.034;2023-05-21T01:57:32;94781.22;;;10.88;100.00
7990;BME280;4040;42.848;23.034;2023-05-21T02:03:24;94748.38;;;10.70;100.00
7990;BME280;4040;42.848;23.034;2023-05-21T02:09:14;94744.25;;;10.59;100.00
7990;BME280;4040;42.848;23.034;2023-05-21T02:19:26;94749.53;;;10.69;100.00
7990;BME280;4040;42.848;23.034;2023-05-21T02:25:15;94749.13;;;10.71;100.00
7990;BME280;4040;42.848;23.034;2023-05-21T02:31:05;94747.47;;;10.80;100.00
7990;BME280;4040;42.848;23.034;2023-05-21T02:36:55;94747.75;;;10.56;100.00
7990;BME280;4040;42.848;23.034;2023-05-21T02:42:45;94766.72;;;10.45;100.00
7990;BME280;4040;42.848;23.034;2023-05-21T02:48:33;94761.31;;;10.08;100.00
7990;BME280;4040;42.848;23.034;2023-05-21T02:54:24;94762.84;;;10.09;100.00
7990;BME280;4040;42.848;23.034;2023-05-21T03:00:13;94756.09;;;9.91;100.00
7990;BME280;4040;42.848;23.034;2023-05-21T03:06:03;94734.66;;;9.81;100.00
7990;BME280;4040;42.848;23.034;2023-05-21T03:11:53;94749.25;;;9.80;100.00
7990;BME280;4040;42.848;23.034;2023-05-21T03:22:04;94756.84;;;9.92;100.00
7990;BME280;4040;42.848;23.034;2023-05-21T03:27:54;94752.91;;;9.99;100.00
7990;BME280;4040;42.848;23.034;2023-05-21T03:33:43;94755.09;;;10.18;100.00
7990;BME280;4040;42.848;23.034;2023-05-21T03:39:32;94766.94;;;10.24;100.00
7990;BME280;4040;42.848;23.034;2023-05-21T03:45:22;94764.84;;;10.39;100.00
7990;BME280;4040;42.848;23.034;2023-05-21T03:51:11;94762.19;;;10.72;100.00
7990;BME280;4040;42.848;23.034;2023-05-21T03:57:01;94766.38;;;10.77;100.00
7990;BME280;4040;42.848;23.034;2023-05-21T04:02:52;94764.88;;;11.06;100.00
7990;BME280;4040;42.848;23.034;2023-05-21T04:08:40;94758.53;;;11.16;100.00
7990;BME280;4040;42.848;23.034;2023-05-21T04:14:30;94753.03;;;11.26;100.00
7990;BME280;4040;42.848;23.034;2023-05-21T04:24:42;94754.06;;;11.62;100.00
7990;BME280;4040;42.848;23.034;2023-05-21T04:30:32;94757.34;;;11.73;100.00
7990;BME280;4040;42.848;23.034;2023-05-21T04:36:22;94755.28;;;11.84;100.00
7990;BME280;4040;42.848;23.034;2023-05-21T04:42:12;94752.53;;;12.30;100.00
7990;BME280;4040;42.848;23.034;2023-05-21T04:48:00;94752.50;;;12.53;100.00
7990;BME280;4040;42.848;23.034;2023-05-21T04:53:50;94759.56;;;12.47;100.00
7990;BME280;4040;42.848;23.034;2023-05-21T04:59:41;94760.81;;;12.62;100.00
7990;BME280;4040;42.848;23.034;2023-05-21T05:05:29;94766.50;;;12.87;100.00
7990;BME280;4040;42.848;23.034;2023-05-21T05:11:18;94758.56;;;12.80;100.00
7990;BME280;4040;42.848;23.034;2023-05-21T05:17:09;94760.88;;;13.01;100.00
7990;BME280;4040;42.848;23.034;2023-05-21T05:27:19;94753.50;;;13.21;100.00
7990;BME280;4040;42.848;23.034;2023-05-21T05:33:10;94746.09;;;13.41;100.00
7990;BME280;4040;42.848;23.034;2023-05-21T05:38:58;94737.69;;;13.87;100.00
7990;BME280;4040;42.848;23.034;2023-05-21T05:44:47;94742.16;;;14.70;100.00
7990;BME280;4040;42.848;23.034;2023-05-21T05:50:37;94743.22;;;15.41;100.00
7990;BME280;4040;42.848;23.034;2023-05-21T05:56:25;94737.84;;;18.24;100.00
7990;BME280;4040;42.848;23.034;2023-05-21T06:02:14;94723.09;;;20.30;100.00
7990;BME280;4040;42.848;23.034;2023-05-21T06:08:05;94713.22;;;21.95;83.78
7990;BME280;4040;42.848;23.034;2023-05-21T06:13:54;94699.84;;;22.17;76.85
7990;BME280;4040;42.848;23.034;2023-05-21T06:19:42;94705.25;;;23.88;64.92
7990;BME280;4040;42.848;23.034;2023-05-21T06:29:55;94686.34;;;26.49;52.01
7990;BME280;4040;42.848;23.034;2023-05-21T06:35:44;94681.31;;;26.64;50.21
7990;BME280;4040;42.848;23.034;2023-05-21T06:41:32;94682.75;;;27.68;46.79
7990;BME280;4040;42.848;23.034;2023-05-21T06:47:22;94670.41;;;29.00;43.73
7990;BME280;4040;42.848;23.034;2023-05-21T06:53:11;94670.06;;;28.85;44.23
7990;BME280;4040;42.848;23.034;2023-05-21T06:59:02;94656.22;;;30.61;41.63
7990;BME280;4040;42.848;23.034;2023-05-21T07:04:53;94660.31;;;29.71;37.75
7990;BME280;4040;42.848;23.034;2023-05-21T07:10:41;94656.66;;;26.77;41.86
7990;BME280;4040;42.848;23.034;2023-05-21T07:16:30;94656.78;;;26.34;41.65
7990;BME280;4040;42.848;23.034;2023-05-21T07:22:20;94649.84;;;25.67;43.07
7990;BME280;4040;42.848;23.034;2023-05-21T07:32:31;94650.97;;;24.83;46.17
7990;BME280;4040;42.848;23.034;2023-05-21T07:38:21;94658.63;;;26.82;44.41
7990;BME280;4040;42.848;23.034;2023-05-21T07:44:10;94665.38;;;27.38;41.60
7990;BME280;4040;42.848;23.034;2023-05-21T07:49:58;94664.66;;;28.02;37.58
7990;BME280;4040;42.848;23.034;2023-05-21T07:55:49;94668.94;;;27.33;36.50
7990;BME280;4040;42.848;23.034;2023-05-21T08:01:37;94671.88;;;26.11;39.00
7990;BME280;4040;42.848;23.034;2023-05-21T08:07:26;94663.94;;;27.26;37.58
7990;BME280;4040;42.848;23.034;2023-05-21T08:13:17;94667.53;;;29.42;35.38
7990;BME280;4040;42.848;23.034;2023-05-21T08:19:05;94644.09;;;27.57;36.77
7990;BME280;4040;42.848;23.034;2023-05-21T08:24:54;94663.94;;;27.26;35.68
7990;BME280;4040;42.848;23.034;2023-05-21T08:35:08;94671.50;;;26.69;36.43
7990;BME280;4040;42.848;23.034;2023-05-21T08:40:57;94678.09;;;27.87;36.17
7990;BME280;4040;42.848;23.034;2023-05-21T08:46:48;94671.69;;;27.68;32.87
7990;BME280;4040;42.848;23.034;2023-05-21T08:52:40;94668.91;;;27.74;32.33
7990;BME280;4040;42.848;23.034;2023-05-21T08:58:31;94692.56;;;28.04;30.63
7990;BME280;4040;42.848;23.034;2023-05-21T09:04:21;94686.41;;;27.87;31.65
7990;BME280;4040;42.848;23.034;2023-05-21T09:10:13;94687.16;;;27.12;32.08
7990;BME280;4040;42.848;23.034;2023-05-21T09:16:02;94673.16;;;27.40;32.18
7990;BME280;4040;42.848;23.034;2023-05-21T09:21:51;94671.59;;;26.25;33.44
7990;BME280;4040;42.848;23.034;2023-05-21T09:27:41;94683.56;;;27.63;33.12
7990;BME280;4040;42.848;23.034;2023-05-21T09:37:52;94651.06;;;29.50;31.88
7990;BME280;4040;42.848;23.034;2023-05-21T09:43:43;94656.56;;;28.76;32.15
7990;BME280;4040;42.848;23.034;2023-05-21T09:49:32;94650.69;;;29.72;30.79
7990;BME280;4040;42.848;23.034;2023-05-21T09:55:22;94640.75;;;27.99;31.03
7990;BME280;4040;42.848;23.034;2023-05-21T10:01:12;94651.59;;;27.97;31.80
7990;BME280;4040;42.848;23.034;2023-05-21T10:07:01;94661.78;;;27.14;31.95
7990;BME280;4040;42.848;23.034;2023-05-21T10:12:52;94658.06;;;25.17;34.56
7990;BME280;4040;42.848;23.034;2023-05-21T10:18:44;94639.59;;;24.12;35.88
7990;BME280;4040;42.848;23.034;2023-05-21T10:24:45;94617.75;;;25.64;34.95
7990;BME280;4040;42.848;23.034;2023-05-21T10:30:35;94631.09;;;24.63;38.04
7990;BME280;4040;42.848;23.034;2023-05-21T10:40:48;94630.22;;;26.20;36.92
7990;BME280;4040;42.848;23.034;2023-05-21T10:53:00;94627.09;;;24.64;38.36
7990;BME280;4040;42.848;23.034;2023-05-21T10:59:15;94628.41;;;24.21;36.16
7990;BME280;4040;42.848;23.034;2023-05-21T11:05:09;94625.41;;;23.82;35.58
7990;BME280;4040;42.848;23.034;2023-05-21T11:10:58;94604.47;;;23.54;37.06
7990;BME280;4040;42.848;23.034;2023-05-21T11:16:48;94636.03;;;23.64;36.50
7990;BME280;4040;42.848;23.034;2023-05-21T11:22:37;94608.06;;;23.71;35.32
7990;BME280;4040;42.848;23.034;2023-05-21T11:28:31;94621.13;;;23.76;36.25
7990;BME280;4040;42.848;23.034;2023-05-21T11:34:22;94616.41;;;23.51;37.10
7990;BME280;4040;42.848;23.034;2023-05-21T11:40:21;94596.56;;;23.67;36.22
7990;BME280;4040;42.848;23.034;2023-05-21T11:46:13;94586.91;;;23.82;36.13
7990;BME280;4040;42.848;23.034;2023-05-21T11:52:04;94581.34;;;24.19;36.89
7990;BME280;4040;42.848;23.034;2023-05-21T11:57:54;94576.78;;;23.99;36.42
7990;BME280;4040;42.848;23.034;2023-05-21T12:03:42;94566.94;;;23.87;37.84
7990;BME280;4040;42.848;23.034;2023-05-21T12:09:38;94565.22;;;22.66;39.45
7990;BME280;4040;42.848;23.034;2023-05-21T12:15:27;94560.31;;;23.01;38.49
7990;BME280;4040;42.848;23.034;2023-05-21T12:21:15;94557.00;;;23.59;38.01
7990;BME280;4040;42.848;23.034;2023-05-21T12:27:06;94551.75;;;24.03;36.61
7990;BME280;4040;42.848;23.034;2023-05-21T12:32:57;94561.59;;;23.73;35.13
7990;BME280;4040;42.848;23.034;2023-05-21T12:43:11;94537.78;;;24.12;35.43
7990;BME280;4040;42.848;23.034;2023-05-21T12:49:00;94487.44;;;23.84;36.86
7990;BME280;4040;42.848;23.034;2023-05-21T12:54:50;94550.44;;;23.51;38.49
7990;BME280;4040;42.848;23.034;2023-05-21T13:00:42;94566.19;;;23.14;40.01
7990;BME280;4040;42.848;23.034;2023-05-21T13:06:41;94552.19;;;22.87;42.01
7990;BME280;4040;42.848;23.034;2023-05-21T13:12:31;94548.00;;;22.40;44.21
7990;BME280;4040;42.848;23.034;2023-05-21T13:18:21;94553.75;;;22.22;45.92
7990;BME280;4040;42.848;23.034;2023-05-21T13:24:09;94556.00;;;22.44;44.65
7990;BME280;4040;42.848;23.034;2023-05-21T13:29:58;94558.09;;;22.54;44.93
7990;BME280;4040;42.848;23.034;2023-05-21T13:35:49;94544.09;;;23.34;42.10
7990;BME280;4040;42.848;23.034;2023-05-21T13:46:00;94553.38;;;22.80;42.37
7990;BME280;4040;42.848;23.034;2023-05-21T13:51:50;94550.78;;;22.46;43.51
7990;BME280;4040;42.848;23.034;2023-05-21T13:57:39;94557.84;;;22.32;43.72
7990;BME280;4040;42.848;23.034;2023-05-21T14:03:27;94558.50;;;22.02;44.20
7990;BME280;4040;42.848;23.034;2023-05-21T14:09:17;94545.72;;;22.19;45.12
7990;BME280;4040;42.848;23.034;2023-05-21T14:15:08;94535.84;;;22.47;44.82
7990;BME280;4040;42.848;23.034;2023-05-21T14:20:57;94536.56;;;22.47;43.73
7990;BME280;4040;42.848;23.034;2023-05-21T14:26:47;94532.19;;;22.35;43.71
7990;BME280;4040;42.848;23.034;2023-05-21T14:32:35;94530.94;;;22.36;44.04
7990;BME280;4040;42.848;23.034;2023-05-21T14:38:24;94535.63;;;22.50;45.16
7990;BME280;4040;42.848;23.034;2023-05-21T14:48:37;94535.13;;;22.32;44.76
7990;BME280;4040;42.848;23.034;2023-05-21T14:54:25;94544.84;;;22.07;45.01
7990;BME280;4040;42.848;23.034;2023-05-21T15:00:14;94525.50;;;22.16;45.33
7990;BME280;4040;42.848;23.034;2023-05-21T15:06:04;94529.44;;;22.35;46.61
7990;BME280;4040;42.848;23.034;2023-05-21T15:11:53;94527.47;;;22.36;45.58
7990;BME280;4040;42.848;23.034;2023-05-21T15:17:42;94520.34;;;22.44;45.88
7990;BME280;4040;42.848;23.034;2023-05-21T15:23:32;94538.53;;;22.41;46.33
7990;BME280;4040;42.848;23.034;2023-05-21T15:29:21;94526.00;;;22.60;44.89
7990;BME280;4040;42.848;23.034;2023-05-21T15:35:09;94534.34;;;22.26;45.56
7990;BME280;4040;42.848;23.034;2023-05-21T15:40:59;94525.84;;;22.04;45.57
7990;BME280;4040;42.848;23.034;2023-05-21T15:51:10;94539.03;;;22.45;45.11
7990;BME280;4040;42.848;23.034;2023-05-21T15:57:00;94528.84;;;22.46;45.96
7990;BME280;4040;42.848;23.034;2023-05-21T16:02:48;94547.16;;;22.14;47.52
7990;BME280;4040;42.848;23.034;2023-05-21T16:08:37;94542.63;;;21.71;49.10
7990;BME280;4040;42.848;23.034;2023-05-21T16:14:27;94551.38;;;21.55;49.87
7990;BME280;4040;42.848;23.034;2023-05-21T16:20:16;94548.94;;;21.43;51.00
7990;BME280;4040;42.848;23.034;2023-05-21T16:26:08;94550.09;;;21.36;50.10
7990;BME280;4040;42.848;23.034;2023-05-21T16:31:59;94510.31;;;20.77;50.09
7990;BME280;4040;42.848;23.034;2023-05-21T16:37:47;94554.88;;;20.78;51.21
7990;BME280;4040;42.848;23.034;2023-05-21T16:43:36;94566.19;;;20.57;51.84
7990;BME280;4040;42.848;23.034;2023-05-21T16:53:48;94573.69;;;20.33;54.13
7990;BME280;4040;42.848;23.034;2023-05-21T16:59:37;94586.28;;;20.16;56.44
7990;BME280;4040;42.848;23.034;2023-05-21T17:05:25;94608.97;;;19.84;57.98
7990;BME280;4040;42.848;23.034;2023-05-21T17:11:16;94604.91;;;19.56;58.99
7990;BME280;4040;42.848;23.034;2023-05-21T17:17:04;94608.63;;;19.35;60.22
7990;BME280;4040;42.848;23.034;2023-05-21T17:22:53;94615.09;;;19.05;62.79
7990;BME280;4040;42.848;23.034;2023-05-21T17:28:43;94616.50;;;18.73;65.40
7990;BME280;4040;42.848;23.034;2023-05-21T17:34:32;94631.53;;;18.60;68.07
7990;BME280;4040;42.848;23.034;2023-05-21T17:40:21;94636.69;;;18.40;71.72
7990;BME280;4040;42.848;23.034;2023-05-21T17:46:12;94635.00;;;18.15;75.04
7990;BME280;4040;42.848;23.034;2023-05-21T17:56:25;94632.84;;;17.84;79.61
7990;BME280;4040;42.848;23.034;2023-05-21T18:02:15;94634.78;;;17.74;83.21
7990;BME280;4040;42.848;23.034;2023-05-21T18:08:04;94634.88;;;17.62;86.74
7990;BME280;4040;42.848;23.034;2023-05-21T18:13:54;94645.44;;;17.42;89.68
7990;BME280;4040;42.848;23.034;2023-05-21T18:19:44;94646.97;;;17.21;94.54
7990;BME280;4040;42.848;23.034;2023-05-21T18:25:33;94608.34;;;16.74;95.19
7990;BME280;4040;42.848;23.034;2023-05-21T18:31:21;94653.56;;;17.11;93.46
7990;BME280;4040;42.848;23.034;2023-05-21T18:37:12;94656.66;;;17.22;92.31
7990;BME280;4040;42.848;23.034;2023-05-21T18:43:00;94656.47;;;17.38;89.53
7990;BME280;4040;42.848;23.034;2023-05-21T18:48:49;94663.91;;;17.25;92.92
7990;BME280;4040;42.848;23.034;2023-05-21T18:59:01;94691.78;;;17.29;96.69
7990;BME280;4040;42.848;23.034;2023-05-21T19:04:50;94732.34;;;15.66;100.00
7990;BME280;4040;42.848;23.034;2023-05-21T19:10:39;94780.66;;;14.49;100.00
7990;BME280;4040;42.848;23.034;2023-05-21T19:16:29;94767.63;;;13.80;100.00
7990;BME280;4040;42.848;23.034;2023-05-21T19:22:18;94803.31;;;13.91;100.00
7990;BME280;4040;42.848;23.034;2023-05-21T19:28:07;94790.38;;;13.82;100.00
7990;BME280;4040;42.848;23.034;2023-05-21T19:33:57;94784.88;;;14.02;100.00
7990;BME280;4040;42.848;23.034;2023-05-21T19:39:46;94783.88;;;14.12;100.00
7990;BME280;4040;42.848;23.034;2023-05-21T19:45:36;94791.06;;;14.02;100.00
7990;BME280;4040;42.848;23.034;2023-05-21T19:51:26;94770.69;;;14.14;100.00
7990;BME280;4040;42.848;23.034;2023-05-21T20:01:36;94774.81;;;14.02;100.00
7990;BME280;4040;42.848;23.034;2023-05-21T20:07:27;94761.19;;;13.90;100.00
7990;BME280;4040;42.848;23.034;2023-05-21T20:13:16;94771.59;;;13.75;100.00
7990;BME280;4040;42.848;23.034;2023-05-21T20:19:04;94773.16;;;13.41;100.00
7990;BME280;4040;42.848;23.034;2023-05-21T20:24:58;94773.50;;;13.43;100.00
7990;BME280;4040;42.848;23.034;2023-05-21T20:30:52;94774.69;;;13.42;100.00
7990;BME280;4040;42.848;23.034;2023-05-21T20:36:41;94781.75;;;13.36;100.00
7990;BME280;4040;42.848;23.034;2023-05-21T20:42:31;94770.25;;;13.32;100.00
7990;BME280;4040;42.848;23.034;2023-05-21T20:48:22;94775.13;;;13.21;100.00
7990;BME280;4040;42.848;23.034;2023-05-21T20:54:11;94761.41;;;13.12;100.00
7990;BME280;4040;42.848;23.034;2023-05-21T21:04:23;94769.72;;;13.21;100.00
7990;BME280;4040;42.848;23.034;2023-05-21T21:10:13;94742.91;;;12.91;100.00
7990;BME280;4040;42.848;23.034;2023-05-21T21:16:02;94774.03;;;12.99;100.00
7990;BME280;4040;42.848;23.034;2023-05-21T21:21:52;94777.53;;;12.76;100.00
7990;BME280;4040;42.848;23.034;2023-05-21T21:27:41;94785.09;;;12.85;100.00
7990;BME280;4040;42.848;23.034;2023-05-21T21:33:30;94773.59;;;12.81;100.00
7990;BME280;4040;42.848;23.034;2023-05-21T21:39:20;94764.50;;;12.52;100.00
7990;BME280;4040;42.848;23.034;2023-05-21T21:45:09;94770.81;;;12.65;100.00
7990;BME280;4040;42.848;23.034;2023-05-21T21:50:59;94783.13;;;12.66;100.00
7990;BME280;4040;42.848;23.034;2023-05-21T21:56:49;94778.78;;;12.53;100.00
7990;BME280;4040;42.848;23.034;2023-05-21T22:08:28;94732.56;;;12.05;100.00
7990;BME280;4040;42.848;23.034;2023-05-21T22:14:17;94763.13;;;12.21;100.00
7990;BME280;4040;42.848;23.034;2023-05-21T22:20:07;94771.22;;;12.21;100.00
7990;BME280;4040;42.848;23.034;2023-05-21T22:25:58;94758.41;;;12.25;100.00
7990;BME280;4040;42.848;23.034;2023-05-21T22:31:46;94754.56;;;12.26;100.00
7990;BME280;4040;42.848;23.034;2023-05-21T22:37:35;94734.25;;;12.18;100.00
7990;BME280;4040;42.848;23.034;2023-05-21T22:43:26;94741.41;;;12.67;100.00
7990;BME280;4040;42.848;23.034;2023-05-21T22:49:14;94743.38;;;12.86;100.00
7990;BME280;4040;42.848;23.034;2023-05-21T22:55:04;94743.38;;;12.86;100.00
7990;BME280;4040;42.848;23.034;2023-05-21T23:00:54;94741.59;;;12.99;100.00
7990;BME280;4040;42.848;23.034;2023-05-21T23:03:21;94745.13;;;12.96;100.00
7990;BME280;4040;42.848;23.034;2023-05-21T23:09:10;94748.22;;;13.14;100.00
7990;BME280;4040;42.848;23.034;2023-05-21T23:14:59;94734.19;;;13.19;100.00
7990;BME280;4040;42.848;23.034;2023-05-21T23:20:49;94735.03;;;13.16;100.00
7990;BME280;4040;42.848;23.034;2023-05-21T23:26:38;94734.78;;;12.91;100.00
7990;BME280;4040;42.848;23.034;2023-05-21T23:32:27;94735.03;;;12.77;100.00
7990;BME280;4040;42.848;23.034;2023-05-21T23:38:17;94733.81;;;12.62;100.00
7990;BME280;4040;42.848;23.034;2023-05-21T23:44:06;94729.50;;;12.45;100.00
7990;BME280;4040;42.848;23.034;2023-05-21T23:49:55;94730.88;;;12.34;100.00
7990;BME280;4040;42.848;23.034;2023-05-21T23:55:45;94730.53;;;12.32;100.00
